createdAt,value
2017-09-17T00:02:19.616Z,7.78
2017-09-17T00:04:47.257Z,6.78
2017-09-17T00:07:15.669Z,7.10
2017-09-17T00:09:43.312Z,7.85
2017-09-17T00:12:10.977Z,7.45
2017-09-17T00:14:38.604Z,7.15
2017-09-17T00:17:06.292Z,6.68
2017-09-17T00:19:34.709Z,8.05
2017-09-17T00:22:02.335Z,7.95
2017-09-17T00:24:29.973Z,7.20
2017-09-17T00:26:57.635Z,6.97
2017-09-17T00:29:25.259Z,6.65
2017-09-17T00:31:53.643Z,9.75
2017-09-17T00:34:21.996Z,7.62
2017-09-17T00:36:49.614Z,8.57
2017-09-17T00:39:18.000Z,6.62
2017-09-17T00:41:45.662Z,8.85
2017-09-17T00:44:13.285Z,9.52
2017-09-17T00:46:41.676Z,10.57
2017-09-17T00:49:09.327Z,10.88
2017-09-17T00:51:36.946Z,8.30
2017-09-17T00:54:04.566Z,8.35
2017-09-17T00:56:32.221Z,8.50
2017-09-17T00:59:00.604Z,8.90
2017-09-17T01:01:29.005Z,10.07
2017-09-17T01:03:56.664Z,8.88
2017-09-17T01:06:24.280Z,9.48
2017-09-17T01:08:51.906Z,9.10
2017-09-17T01:11:20.333Z,6.75
2017-09-17T01:13:47.952Z,7.25
2017-09-17T01:16:15.571Z,6.95
2017-09-17T01:18:43.216Z,7.45
2017-09-17T01:21:10.837Z,8.77
2017-09-17T01:23:39.234Z,8.52
2017-09-17T01:26:06.898Z,7.90
2017-09-17T01:28:34.512Z,7.28
2017-09-17T01:31:02.139Z,10.18
2017-09-17T01:33:30.566Z,11.57
2017-09-17T01:35:58.188Z,9.98
2017-09-17T01:38:25.808Z,9.25
2017-09-17T01:40:54.220Z,10.43
2017-09-17T01:43:21.848Z,10.43
2017-09-17T01:45:49.476Z,9.15
2017-09-17T01:48:17.135Z,10.07
2017-09-17T01:50:44.749Z,9.70
2017-09-17T01:53:13.150Z,10.23
2017-09-17T01:55:40.812Z,13.20
2017-09-17T01:58:08.435Z,7.97
2017-09-17T02:00:36.059Z,7.45
2017-09-17T02:03:04.483Z,6.90
2017-09-17T02:05:32.099Z,7.22
2017-09-17T02:07:59.720Z,8.05
2017-09-17T02:10:28.140Z,7.00
2017-09-17T02:12:55.756Z,8.65
2017-09-17T02:15:23.377Z,9.18
2017-09-17T02:17:51.801Z,10.52
2017-09-17T02:20:19.429Z,9.43
2017-09-17T02:22:47.045Z,8.32
2017-09-17T02:25:14.706Z,8.63
2017-09-17T02:27:42.324Z,8.15
2017-09-17T02:30:10.709Z,9.43
2017-09-17T02:32:38.355Z,9.32
2017-09-17T02:35:06.980Z,7.95
2017-09-17T02:37:34.599Z,7.82
2017-09-17T02:40:02.256Z,7.85
2017-09-17T02:42:29.882Z,9.43
2017-09-17T02:44:57.505Z,9.48
2017-09-17T02:47:25.165Z,10.55
2017-09-17T02:49:52.779Z,8.65
2017-09-17T02:52:21.173Z,8.00
2017-09-17T02:54:48.821Z,9.93
2017-09-17T02:57:16.464Z,8.55
2017-09-17T02:59:44.079Z,8.55
2017-09-17T03:02:12.495Z,10.88
2017-09-17T03:04:40.112Z,11.55
2017-09-17T03:07:07.730Z,9.57
2017-09-17T03:09:35.379Z,9.73
2017-09-17T03:12:03.000Z,9.32
2017-09-17T03:14:30.639Z,10.20
2017-09-17T03:16:58.330Z,10.88
2017-09-17T03:19:26.716Z,9.48
2017-09-17T03:21:54.335Z,11.30
2017-09-17T03:24:21.994Z,11.60
2017-09-17T03:26:49.648Z,11.73
2017-09-17T03:29:17.275Z,10.23
2017-09-17T03:31:45.688Z,9.07
2017-09-17T03:34:13.309Z,8.45
2017-09-17T03:36:40.951Z,11.15
2017-09-17T03:39:08.604Z,10.55
2017-09-17T03:41:36.223Z,9.52
2017-09-17T03:44:03.853Z,10.98
2017-09-17T03:46:31.515Z,11.52
2017-09-17T03:48:59.916Z,10.15
2017-09-17T03:51:27.539Z,11.60
2017-09-17T03:53:55.200Z,14.95
2017-09-17T03:56:22.832Z,11.40
2017-09-17T03:58:50.474Z,11.00
2017-09-17T04:01:18.128Z,11.48
2017-09-17T04:03:45.763Z,11.35
2017-09-17T04:06:13.446Z,12.05
2017-09-17T04:08:41.109Z,12.60
2017-09-17T04:11:08.736Z,11.95
2017-09-17T04:13:36.373Z,14.02
2017-09-17T04:16:04.040Z,12.77
2017-09-17T04:18:31.666Z,11.95
2017-09-17T04:20:59.293Z,15.95
2017-09-17T04:23:27.714Z,10.40
2017-09-17T04:25:55.343Z,22.30
2017-09-17T04:28:22.972Z,14.32
2017-09-17T04:30:50.631Z,14.70
2017-09-17T04:33:18.251Z,11.70
2017-09-17T04:35:45.881Z,11.52
2017-09-17T04:38:14.307Z,10.93
2017-09-17T04:40:41.931Z,16.08
2017-09-17T04:43:09.558Z,14.65
2017-09-17T04:45:37.261Z,14.68
2017-09-17T04:48:04.887Z,11.82
2017-09-17T04:50:32.511Z,11.90
2017-09-17T04:53:00.166Z,9.73
2017-09-17T04:55:27.793Z,10.40
2017-09-17T04:57:55.423Z,12.52
2017-09-17T05:00:23.853Z,10.43
2017-09-17T05:02:51.511Z,13.45
2017-09-17T05:05:19.142Z,12.63
2017-09-17T05:07:46.807Z,12.30
2017-09-17T05:10:14.436Z,14.05
2017-09-17T05:12:42.073Z,14.05
2017-09-17T05:15:09.729Z,11.05
2017-09-17T05:17:37.358Z,10.60
2017-09-17T05:20:05.012Z,11.00
2017-09-17T05:22:32.664Z,10.77
2017-09-17T05:25:00.298Z,11.70
2017-09-17T05:27:27.916Z,10.38
2017-09-17T05:29:55.571Z,9.73
2017-09-17T05:32:23.191Z,10.18
2017-09-17T05:34:51.590Z,12.13
2017-09-17T05:37:19.251Z,11.43
2017-09-17T05:39:46.915Z,12.23
2017-09-17T05:42:14.616Z,10.05
2017-09-17T05:44:42.280Z,10.05
2017-09-17T05:47:09.920Z,10.73
2017-09-17T05:49:37.552Z,9.40
2017-09-17T05:52:06.916Z,8.63
2017-09-17T05:54:35.322Z,10.50
2017-09-17T05:57:05.242Z,8.93
2017-09-17T05:59:33.425Z,9.02
2017-09-17T06:02:01.048Z,9.73
2017-09-17T06:04:28.673Z,9.43
2017-09-17T06:06:56.322Z,9.65
2017-09-17T06:09:23.952Z,10.93
2017-09-17T06:11:51.580Z,10.23
2017-09-17T06:14:19.249Z,11.80
2017-09-17T06:16:46.872Z,10.05
2017-09-17T06:19:15.260Z,10.40
2017-09-17T06:21:43.268Z,10.18
2017-09-17T06:24:11.196Z,10.43
2017-09-17T06:26:38.864Z,9.15
2017-09-17T06:29:06.568Z,9.45
2017-09-17T06:31:34.236Z,10.95
2017-09-17T06:34:01.868Z,10.85
2017-09-17T06:36:30.338Z,9.25
2017-09-17T06:38:59.403Z,8.50
2017-09-17T06:41:27.947Z,10.20
2017-09-17T06:43:56.374Z,8.88
2017-09-17T06:46:24.009Z,7.90
2017-09-17T06:48:51.636Z,8.93
2017-09-17T06:51:19.291Z,7.93
2017-09-17T06:53:46.929Z,9.70
2017-09-17T06:56:14.565Z,9.68
2017-09-17T06:58:42.232Z,8.32
2017-09-17T07:01:09.864Z,8.00
2017-09-17T07:03:37.568Z,7.30
2017-09-17T07:06:05.224Z,7.50
2017-09-17T07:08:33.620Z,7.82
2017-09-17T07:11:01.247Z,8.82
2017-09-17T07:13:29.686Z,11.25
2017-09-17T07:15:57.316Z,8.18
2017-09-17T07:18:24.956Z,7.40
2017-09-17T07:20:52.644Z,8.77
2017-09-17T07:23:21.044Z,7.53
2017-09-17T07:25:48.665Z,7.40
2017-09-17T07:28:17.092Z,7.85
2017-09-17T07:30:44.723Z,7.62
2017-09-17T07:33:12.347Z,7.07
2017-09-17T07:35:40.009Z,7.03
2017-09-17T07:38:07.637Z,6.55
2017-09-17T07:40:35.266Z,6.82
2017-09-17T07:43:02.934Z,8.23
2017-09-17T07:45:30.560Z,8.05
2017-09-17T07:47:58.201Z,7.85
2017-09-17T07:50:26.619Z,7.43
2017-09-17T07:52:54.235Z,6.75
2017-09-17T07:55:21.869Z,6.43
2017-09-17T07:57:49.536Z,5.25
2017-09-17T08:00:17.165Z,6.22
2017-09-17T08:02:44.799Z,5.97
2017-09-17T08:05:13.219Z,5.03
2017-09-17T08:07:40.844Z,5.15
2017-09-17T08:10:08.493Z,5.57
2017-09-17T08:12:36.155Z,5.00
2017-09-17T08:15:03.788Z,4.65
2017-09-17T08:17:31.425Z,4.93
2017-09-17T08:19:59.120Z,3.73
2017-09-17T08:22:26.722Z,3.87
2017-09-17T08:24:54.339Z,3.23
2017-09-17T08:27:21.973Z,4.00
2017-09-17T08:29:49.585Z,3.33
2017-09-17T08:32:17.204Z,5.27
2017-09-17T08:34:44.836Z,3.90
2017-09-17T08:37:12.450Z,4.67
2017-09-17T08:39:40.060Z,3.57
2017-09-17T08:42:07.696Z,4.00
2017-09-17T08:44:36.272Z,4.30
2017-09-17T08:47:03.881Z,5.27
2017-09-17T08:49:32.285Z,4.50
2017-09-17T08:51:59.881Z,4.07
2017-09-17T08:54:27.485Z,4.73
2017-09-17T08:56:55.124Z,5.97
2017-09-17T08:59:22.724Z,3.40
2017-09-17T09:01:50.329Z,4.17
2017-09-17T09:04:17.964Z,3.80
2017-09-17T09:06:45.585Z,3.40
2017-09-17T09:09:13.184Z,4.37
2017-09-17T09:11:40.809Z,3.50
2017-09-17T09:14:08.405Z,3.30
2017-09-17T09:16:36.771Z,3.40
2017-09-17T09:19:04.399Z,2.93
2017-09-17T09:21:32.001Z,3.70
2017-09-17T09:23:59.596Z,3.20
2017-09-17T09:26:27.223Z,3.20
2017-09-17T09:28:54.824Z,2.67
2017-09-17T09:31:22.425Z,3.20
2017-09-17T09:33:50.062Z,3.50
2017-09-17T09:36:17.661Z,4.13
2017-09-17T09:38:45.255Z,3.40
2017-09-17T09:41:12.906Z,2.93
2017-09-17T09:43:41.295Z,3.67
2017-09-17T09:46:09.662Z,3.63
2017-09-17T09:48:37.289Z,3.67
2017-09-17T09:51:04.876Z,4.27
2017-09-17T09:53:32.467Z,4.60
2017-09-17T09:56:00.096Z,4.63
2017-09-17T09:58:27.704Z,4.50
2017-09-17T10:00:55.299Z,4.60
2017-09-17T10:03:22.939Z,4.30
2017-09-17T10:05:50.531Z,4.63
2017-09-17T10:08:18.127Z,4.60
2017-09-17T10:10:45.755Z,4.60
2017-09-17T10:13:13.627Z,3.87
2017-09-17T10:15:41.223Z,3.70
2017-09-17T10:18:08.852Z,4.50
2017-09-17T10:20:37.212Z,4.40
2017-09-17T10:23:04.812Z,4.20
2017-09-17T10:25:32.447Z,4.40
2017-09-17T10:28:00.040Z,4.43
2017-09-17T10:30:27.644Z,4.80
2017-09-17T10:32:55.268Z,3.50
2017-09-17T10:35:22.859Z,3.50
2017-09-17T10:37:50.456Z,3.20
2017-09-17T10:40:18.079Z,3.27
2017-09-17T10:42:46.435Z,3.53
2017-09-17T10:45:14.038Z,2.23
2017-09-17T10:47:41.696Z,3.40
2017-09-17T10:50:09.307Z,5.03
2017-09-17T10:52:36.914Z,3.53
2017-09-17T10:55:04.556Z,3.00
2017-09-17T10:57:32.154Z,1.93
2017-09-17T10:59:59.766Z,1.97
2017-09-17T11:02:28.161Z,1.83
2017-09-17T11:04:58.041Z,2.23
2017-09-17T11:07:26.404Z,1.93
2017-09-17T11:09:54.031Z,4.13
2017-09-17T11:12:21.749Z,2.00
2017-09-17T11:14:49.351Z,1.90
2017-09-17T11:17:16.996Z,2.37
2017-09-17T11:19:44.600Z,2.13
2017-09-17T11:22:12.216Z,1.67
2017-09-17T11:24:39.877Z,2.78
2017-09-17T11:27:07.487Z,2.30
2017-09-17T11:29:35.085Z,2.10
2017-09-17T11:32:02.724Z,2.53
2017-09-17T11:34:30.335Z,2.70
2017-09-17T11:36:57.944Z,2.40
2017-09-17T11:39:25.600Z,3.22
2017-09-17T11:41:53.972Z,2.50
2017-09-17T11:44:21.592Z,2.30
2017-09-17T11:46:49.219Z,3.07
2017-09-17T11:49:17.616Z,3.47
2017-09-17T11:51:45.248Z,2.78
2017-09-17T11:54:12.891Z,3.23
2017-09-17T11:56:41.271Z,2.00
2017-09-17T11:59:08.908Z,2.05
2017-09-17T12:01:36.540Z,2.43
2017-09-17T12:04:04.173Z,2.13
2017-09-17T12:06:31.777Z,1.90
2017-09-17T12:08:59.412Z,4.10
2017-09-17T12:11:27.017Z,1.83
2017-09-17T12:13:54.631Z,2.40
2017-09-17T12:16:22.258Z,1.90
2017-09-17T12:18:49.868Z,3.57
2017-09-17T12:21:17.467Z,2.87
2017-09-17T12:23:45.100Z,2.00
2017-09-17T12:26:12.705Z,2.00
2017-09-17T12:28:40.312Z,4.77
2017-09-17T12:31:07.952Z,2.27
2017-09-17T12:33:35.561Z,3.03
2017-09-17T12:36:03.155Z,1.97
2017-09-17T12:38:30.823Z,2.60
2017-09-17T12:40:58.423Z,1.93
2017-09-17T12:43:26.039Z,2.40
2017-09-17T12:45:53.677Z,2.53
2017-09-17T12:48:21.283Z,2.13
2017-09-17T12:50:48.889Z,3.33
2017-09-17T12:53:16.543Z,4.00
2017-09-17T12:55:44.156Z,1.83
2017-09-17T12:58:11.758Z,4.40
2017-09-17T13:00:39.403Z,2.03
2017-09-17T13:03:07.031Z,1.80
2017-09-17T13:05:34.637Z,1.57
2017-09-17T13:08:03.094Z,2.67
2017-09-17T13:10:30.713Z,1.60
2017-09-17T13:12:58.323Z,2.43
2017-09-17T13:15:26.728Z,2.30
2017-09-17T13:17:54.323Z,3.70
2017-09-17T13:20:22.691Z,1.80
2017-09-17T13:22:51.102Z,1.50
2017-09-17T13:25:18.695Z,2.40
2017-09-17T13:27:47.062Z,3.03
2017-09-17T13:30:15.464Z,2.97
2017-09-17T13:32:43.057Z,1.80
2017-09-17T13:35:10.666Z,3.63
2017-09-17T13:37:38.300Z,2.03
2017-09-17T13:40:05.893Z,2.50
2017-09-17T13:42:33.499Z,1.50
2017-09-17T13:45:01.128Z,3.17
2017-09-17T13:47:28.731Z,2.47
2017-09-17T13:49:56.340Z,4.87
2017-09-17T13:52:23.971Z,1.43
2017-09-17T13:54:51.572Z,2.70
2017-09-17T13:57:19.179Z,1.90
2017-09-17T14:00:03.488Z,1.43
2017-09-17T14:05:48.976Z,1.50
2017-09-17T14:11:18.652Z,1.33
2017-09-17T14:13:46.259Z,1.40
2017-09-17T14:16:13.850Z,1.40
2017-09-17T14:18:41.505Z,1.67
2017-09-17T14:21:09.111Z,1.30
2017-09-17T14:23:37.495Z,1.30
2017-09-17T14:26:05.130Z,1.53
2017-09-17T14:28:32.736Z,2.00
2017-09-17T14:31:00.346Z,1.93
2017-09-17T14:33:27.995Z,2.60
2017-09-17T14:35:55.591Z,1.37
2017-09-17T14:38:23.208Z,1.30
2017-09-17T14:40:50.844Z,1.63
2017-09-17T14:43:18.449Z,1.40
2017-09-17T14:45:46.063Z,2.13
2017-09-17T14:48:13.700Z,1.73
2017-09-17T14:50:41.306Z,2.87
2017-09-17T14:53:08.916Z,3.47
2017-09-17T14:55:37.337Z,3.00
2017-09-17T14:58:04.953Z,4.10
2017-09-17T15:00:32.555Z,1.97
2017-09-17T15:03:00.191Z,3.10
2017-09-17T15:05:27.794Z,2.50
2017-09-17T15:07:55.399Z,1.77
2017-09-17T15:10:23.043Z,1.43
2017-09-17T15:12:51.432Z,1.95
2017-09-17T15:15:19.052Z,1.50
2017-09-17T15:17:46.692Z,1.80
2017-09-17T15:20:15.124Z,1.20
2017-09-17T15:22:42.744Z,1.40
2017-09-17T15:25:10.382Z,1.47
2017-09-17T15:27:38.027Z,1.33
2017-09-17T15:30:05.653Z,1.20
2017-09-17T15:32:39.458Z,1.40
2017-09-17T15:35:07.599Z,1.70
2017-09-17T15:37:36.030Z,1.90
2017-09-17T15:40:04.716Z,1.00
2017-09-17T15:42:32.335Z,1.10
2017-09-17T15:44:59.993Z,2.17
2017-09-17T15:47:27.669Z,1.30
2017-09-17T15:49:56.063Z,3.03
2017-09-17T15:52:23.716Z,2.37
2017-09-17T15:54:51.347Z,2.75
2017-09-17T15:57:19.491Z,1.45
2017-09-17T15:59:47.911Z,1.60
2017-09-17T16:02:17.354Z,1.70
2017-09-17T16:04:45.003Z,1.90
2017-09-17T16:07:13.399Z,2.20
2017-09-17T16:09:41.033Z,2.90
2017-09-17T16:12:08.669Z,2.40
2017-09-17T16:14:40.173Z,2.25
2017-09-17T16:17:07.824Z,1.70
2017-09-17T16:19:36.217Z,2.35
2017-09-17T16:22:03.867Z,2.30
2017-09-17T16:24:38.074Z,1.52
2017-09-17T16:27:06.268Z,2.00
2017-09-17T16:29:33.896Z,1.95
2017-09-17T16:32:01.536Z,1.75
2017-09-17T16:34:29.273Z,1.73
2017-09-17T16:36:56.912Z,2.10
2017-09-17T16:39:24.561Z,1.95
2017-09-17T16:41:52.262Z,2.58
2017-09-17T16:44:19.889Z,1.90
2017-09-17T16:46:47.532Z,1.60
2017-09-17T16:49:15.188Z,1.75
2017-09-17T16:51:42.812Z,2.10
2017-09-17T16:54:10.468Z,2.70
2017-09-17T16:56:38.158Z,2.15
2017-09-17T16:59:05.843Z,1.87
2017-09-17T17:01:33.477Z,2.87
2017-09-17T17:04:01.223Z,1.80
2017-09-17T17:06:28.884Z,2.55
2017-09-17T17:08:56.508Z,2.37
2017-09-17T17:11:24.163Z,2.17
2017-09-17T17:13:51.789Z,2.35
2017-09-17T17:16:20.231Z,3.45
2017-09-17T17:18:47.892Z,2.40
2017-09-17T17:21:15.526Z,2.85
2017-09-17T17:23:43.503Z,4.00
2017-09-17T17:26:11.924Z,3.37
2017-09-17T17:28:39.580Z,3.08
2017-09-17T17:31:07.211Z,3.10
2017-09-17T17:33:34.916Z,2.75
2017-09-17T17:36:02.603Z,2.50
2017-09-17T17:38:30.559Z,3.47
2017-09-17T17:40:58.232Z,3.30
2017-09-17T17:43:25.865Z,2.53
2017-09-17T17:45:53.496Z,3.42
2017-09-17T17:48:21.157Z,3.50
2017-09-17T17:50:48.790Z,3.30
2017-09-17T17:53:16.412Z,3.72
2017-09-17T17:55:44.068Z,3.95
2017-09-17T17:58:11.699Z,3.20
2017-09-17T18:00:39.328Z,4.45
2017-09-17T18:03:07.749Z,3.30
2017-09-17T18:05:35.436Z,4.00
2017-09-17T18:08:03.835Z,4.10
2017-09-17T18:10:31.503Z,4.07
2017-09-17T18:12:59.136Z,4.30
2017-09-17T18:15:26.772Z,5.15
2017-09-17T18:17:54.424Z,5.37
2017-09-17T18:20:22.054Z,3.92
2017-09-17T18:22:49.684Z,4.62
2017-09-17T18:25:18.104Z,3.85
2017-09-17T18:27:45.739Z,4.25
2017-09-17T18:30:13.369Z,4.40
2017-09-17T18:32:41.036Z,4.72
2017-09-17T18:35:08.665Z,5.70
2017-09-17T18:37:36.294Z,3.95
2017-09-17T18:40:03.948Z,4.25
2017-09-17T18:42:31.581Z,4.20
2017-09-17T18:44:59.970Z,4.82
2017-09-17T18:47:27.631Z,4.60
2017-09-17T18:49:55.243Z,4.47
2017-09-17T18:52:22.870Z,6.55
2017-09-17T18:54:51.299Z,4.43
2017-09-17T18:57:18.930Z,4.10
2017-09-17T18:59:46.557Z,4.60
2017-09-17T19:02:14.213Z,4.12
2017-09-17T19:04:41.848Z,4.50
2017-09-17T19:07:09.481Z,3.50
2017-09-17T19:09:37.146Z,3.60
2017-09-17T19:12:04.783Z,3.55
2017-09-17T19:14:32.441Z,3.30
2017-09-17T19:17:00.104Z,3.08
2017-09-17T19:19:27.736Z,4.18
2017-09-17T19:21:55.357Z,3.37
2017-09-17T19:24:23.794Z,3.40
2017-09-17T19:26:51.417Z,4.78
2017-09-17T19:29:19.052Z,3.65
2017-09-17T19:31:46.718Z,3.95
2017-09-17T19:34:14.357Z,3.92
2017-09-17T19:36:41.983Z,4.12
2017-09-17T19:39:10.659Z,4.18
2017-09-17T19:41:38.400Z,3.67
2017-09-17T19:44:06.227Z,4.37
2017-09-17T19:46:33.919Z,4.07
2017-09-17T19:49:01.588Z,3.40
2017-09-17T19:51:29.220Z,5.05
2017-09-17T19:53:56.946Z,5.30
2017-09-17T19:56:24.575Z,9.02
2017-09-17T19:58:52.195Z,6.32
2017-09-17T20:01:19.866Z,5.53
2017-09-17T20:03:47.525Z,6.22
2017-09-17T20:06:15.147Z,7.20
2017-09-17T20:08:43.581Z,5.43
2017-09-17T20:11:11.235Z,7.10
2017-09-17T20:13:38.867Z,6.65
2017-09-17T20:16:06.530Z,6.60
2017-09-17T20:18:34.161Z,6.35
2017-09-17T20:21:01.808Z,6.82
2017-09-17T20:23:30.287Z,6.55
2017-09-17T20:25:57.916Z,6.62
2017-09-17T20:28:25.571Z,6.12
2017-09-17T20:30:53.227Z,5.90
2017-09-17T20:33:21.758Z,6.35
2017-09-17T20:35:49.601Z,5.60
2017-09-17T20:38:17.256Z,6.20
2017-09-17T20:40:44.874Z,6.65
2017-09-17T20:43:12.497Z,4.68
2017-09-17T20:45:40.931Z,5.75
2017-09-17T20:48:08.553Z,5.50
2017-09-17T20:50:36.178Z,5.93
2017-09-17T20:53:03.848Z,4.93
2017-09-17T20:55:31.479Z,4.87
2017-09-17T20:57:59.107Z,4.80
2017-09-17T21:00:26.810Z,7.30
2017-09-17T21:02:54.452Z,5.50
2017-09-17T21:05:22.086Z,4.90
2017-09-17T21:07:49.748Z,4.22
2017-09-17T21:10:17.391Z,4.68
2017-09-17T21:12:45.011Z,4.00
2017-09-17T21:15:12.664Z,4.65
2017-09-17T21:17:40.284Z,3.95
2017-09-17T21:20:07.910Z,4.20
2017-09-17T21:22:36.329Z,4.22
2017-09-17T21:25:03.956Z,4.82
2017-09-17T21:27:31.576Z,4.32
2017-09-17T21:29:59.997Z,3.95
2017-09-17T21:32:27.624Z,4.28
2017-09-17T21:34:55.240Z,3.58
2017-09-17T21:37:22.896Z,4.75
2017-09-17T21:39:50.523Z,4.70
2017-09-17T21:42:18.916Z,5.28
2017-09-17T21:44:46.571Z,4.80
2017-09-17T21:47:14.190Z,4.18
2017-09-17T21:49:41.826Z,4.05
2017-09-17T21:52:10.252Z,4.35
2017-09-17T21:54:37.919Z,4.28
2017-09-17T21:57:05.533Z,5.80
2017-09-17T21:59:33.178Z,4.78
2017-09-17T22:02:00.796Z,4.90
2017-09-17T22:04:28.456Z,3.85
2017-09-17T22:06:56.109Z,6.30
2017-09-17T22:09:23.728Z,4.07
2017-09-17T22:11:51.348Z,3.78
2017-09-17T22:14:19.777Z,4.12
2017-09-17T22:16:47.390Z,4.10
2017-09-17T22:19:15.007Z,3.85
2017-09-17T22:21:43.432Z,4.53
2017-09-17T22:24:11.100Z,3.60
2017-09-17T22:26:38.716Z,4.40
2017-09-17T22:29:06.391Z,4.45
2017-09-17T22:31:34.018Z,6.37
2017-09-17T22:34:01.644Z,4.22
2017-09-17T22:36:29.308Z,3.80
2017-09-17T22:38:56.928Z,3.97
2017-09-17T22:41:24.553Z,3.28
2017-09-17T22:43:52.984Z,3.50
2017-09-17T22:46:20.614Z,3.95
2017-09-17T22:48:48.226Z,4.12
2017-09-17T22:51:15.878Z,3.70
2017-09-17T22:53:43.499Z,4.93
2017-09-17T22:56:11.887Z,7.43
2017-09-17T22:58:39.536Z,4.00
2017-09-17T23:01:07.152Z,3.20
2017-09-17T23:03:35.551Z,3.50
2017-09-17T23:06:03.208Z,8.68
2017-09-17T23:08:30.839Z,3.50
2017-09-17T23:10:58.456Z,4.62
2017-09-17T23:13:26.875Z,5.03
2017-09-17T23:15:54.508Z,3.45
2017-09-17T23:18:22.118Z,4.93
2017-09-17T23:20:49.776Z,4.22
2017-09-17T23:23:17.450Z,5.18
2017-09-17T23:25:45.160Z,4.05
2017-09-17T23:28:12.810Z,4.53
2017-09-17T23:30:41.193Z,3.60
2017-09-17T23:33:08.809Z,4.75
2017-09-17T23:35:36.463Z,4.18
2017-09-17T23:38:04.907Z,3.62
2017-09-17T23:40:32.532Z,3.58
2017-09-17T23:43:00.191Z,3.28
2017-09-17T23:45:27.809Z,3.92
2017-09-17T23:47:55.437Z,4.25
2017-09-17T23:50:23.105Z,3.50
2017-09-17T23:52:50.737Z,3.80
2017-09-17T23:55:18.372Z,3.53
2017-09-17T23:57:46.335Z,3.20
